Observations for Trim Patrick St
| Time | AQI | Temp °C | Hum % | Pres Pa | CO μg/m³ | H₂S μg/m³ | NO μg/m³ | NO₂ μg/m³ | O₃ μg/m³ | SO₂ μg/m³ | PM1 μg/m³ | PM2.5 μg/m³ | PM10 μg/m³ |
|---|---|---|---|---|---|---|---|---|---|---|---|---|---|
| Monday 3 August 2026 | |||||||||||||
| 16:10 | 3 | 29.3 | 32 | 69,197 | 0 | 0 | 1.29 | 11.73 | 103.64 | 11.25 | 2.86 | 9.94 | 10.93 |
| 16:09 | 3 | 29.4 | 32 | 69,183 | 0 | 0 | 1.27 | 12.37 | 89.02 | 10.23 | 2.86 | 9.18 | 10.1 |
| 16:08 | 3 | 29.4 | 33 | 69,195 | 0 | 0 | 1.34 | 12.53 | 127.3 | 10.88 | 3.71 | 10.65 | 11.72 |
| 16:07 | 3 | 29.5 | 34 | 69,212 | 0 | 0 | 1.37 | 12.09 | 100.64 | 11.25 | 3.71 | 9.02 | 9.92 |
| 16:06 | 3 | 29.5 | 32 | 69,204 | 0 | 0 | 1.25 | 11.51 | 105.01 | 11.41 | 2.86 | 9.15 | 10.07 |
| 16:05 | 3 | 29.5 | 32 | 69,193 | 0 | 0 | 1.21 | 12.88 | 148.05 | 11.53 | 2.86 | 9.14 | 10.06 |
| 16:04 | 3 | 29.6 | 32 | 69,175 | 0 | 0 | 1.26 | 5.38 | 76.77 | 10.15 | 2.86 | 9.95 | 10.94 |
| 16:02 | 3 | 29.6 | 32 | 69,185 | 0 | 0 | 1.29 | 3.44 | 74.79 | 8.37 | 4.57 | 10.75 | 11.83 |
| 16:01 | 3 | 29.7 | 36 | 69,197 | 0 | 1.75 | 1.45 | 22.18 | 118.53 | 12.54 | 3.71 | 9.66 | 10.63 |
| 16:00 | 3 | 29.7 | 34 | 69,236 | 0 | 0.25 | 1.29 | 22.64 | 106.25 | 10.89 | 4.57 | 11.41 | 12.55 |
| 15:58 | 3 | 29.8 | 35 | 69,228 | 0 | 9.11 | 1.39 | 28.74 | 133.47 | 11.8 | 4.57 | 11.36 | 12.5 |
| 15:57 | 3 | 29.8 | 35 | 69,220 | 0 | 4.96 | 1.31 | 29.27 | 171.29 | 11.86 | 4.57 | 10.55 | 11.61 |
| 15:56 | 3 | 29.8 | 34 | 69,238 | 0 | 0 | 1.26 | 16.49 | 93.36 | 12.01 | 4.57 | 10.58 | 11.64 |
| 15:55 | 3 | 29.9 | 34 | 69,234 | 0 | 7.76 | 1.32 | 19.92 | 133.46 | 13.29 | 4.57 | 10.58 | 11.64 |
| 15:54 | 3 | 29.9 | 35 | 69,224 | 0 | 7.12 | 1.41 | 26.59 | 107.03 | 12.26 | 5.43 | 11.36 | 12.5 |
| 15:53 | 3 | 30 | 36 | 69,214 | 0 | 13.46 | 1.33 | 25.54 | 174.54 | 13.12 | 5.43 | 12.83 | 14.11 |
| 15:52 | 3 | 30.1 | 35 | 69,202 | 0 | 9.94 | 1.38 | 27.18 | 154.12 | 12.19 | 5.43 | 12.12 | 13.33 |
| 15:50 | 3 | 30.3 | 35 | 69,228 | 0 | 10.73 | 1.39 | 27.95 | 137.31 | 12.31 | 5.43 | 11.35 | 12.48 |
| 15:49 | 3 | 30.3 | 35 | 69,244 | 0 | 10.25 | 1.2 | 29.91 | 172.8 | 12.84 | 4.57 | 10.55 | 11.61 |
| 15:48 | 3 | 30.4 | 34 | 69,238 | 0 | 5.23 | 1.36 | 20.08 | 128.53 | 13.26 | 5.43 | 12.2 | 13.42 |